Sinegorsk — YJRC5 — position and weather

sailwx.info

Track history (hours):
 
Tides and Currents Weather Stations Pressure Air Temp Water Temp Dewpoint Dewpoint Depression Visibility Wind Speed Wind Dir Waves Ship Positions

Sinegorsk

Last reported at 2014-Nov-01 02:32 UTC. Time now 2014-Nov-01 04:41 UTC.
Position N 38°36' W 009°49'.

Length 133 m; draft 7.2 m.

Type: Cargo ship. MMSI: 576292000.

Date/timePositionNaut miles runAvg speedWind from/ knotsBaromVisibWave heightAir tempDewpointWater temp
2014-Nov-01 02:32N 38°36' W 009°49'11 9.8
2014-Nov-01 01:28N 38°26' W 009°46'12 9.8
2014-Nov-01 00:17N 38°14' W 009°43'710.0
2014-Oct-31 23:33N 38°07' W 009°40'1110.8
2014-Oct-31 22:33N 37°57' W 009°37'1110.9
2014-Oct-31 21:33N 37°46' W 009°34'1110.8
2014-Oct-31 20:32N 37°35' W 009°31'1110.8
2014-Oct-31 19:34N 37°25' W 009°28'50 9.6
2014-Oct-31 14:24N 36°42' W 008°57'910.4
2014-Oct-31 13:33N 36°39' W 008°47'1010.5
2014-Oct-31 12:33N 36°36' W 008°34'15110.8
2014-Oct-30 22:33N 35°59' W 005°33'1110.8
2014-Oct-30 21:33N 36°02' W 005°20'23110.5
2014-Oct-29 23:33N 36°30' W 000°36'1311.2
2014-Oct-29 22:23N 36°32' W 000°20'2411.0
2014-Oct-29 20:13N 36°36' E 000°09'810.5
2014-Oct-29 19:26N 36°38' E 000°19'  
2014-Oct-27 04:23N 36°42' E 013°34'910.2
2014-Oct-27 03:33N 36°40' E 013°45'  
2014-Oct-24 22:14N 36°46' E 023°30'26 8.4
2014-Oct-24 19:06N 37°08' E 023°48'16 8.4
2014-Oct-24 17:10N 37°23' E 023°58'5 8.2
2014-Oct-24 16:33N 37°27' E 024°01'7 7.2
2014-Oct-24 15:34N 37°33' E 024°05'7 6.5
2014-Oct-24 14:25N 37°39' E 024°10'6 6.6
2014-Oct-24 13:29N 37°44' E 024°15'8 7.9
2014-Oct-24 12:26N 37°49' E 024°23'7 8.1
2014-Oct-24 11:34N 37°54' E 024°30'257 9.5
2014-Oct-23 08:28N 40°52' E 028°31'1010.7
2014-Oct-23 07:33N 40°54' E 028°44'1010.0
2014-Oct-23 06:34N 40°57' E 028°56'  
Track history (hours):
 
Tides and Currents Weather Stations Pressure Air Temp Water Temp Dewpoint Dewpoint Depression Visibility Wind Speed Wind Dir Waves Ship Positions

Sinegorsk

Last reported at 2014-Nov-01 02:32 UTC. Time now 2014-Nov-01 04:41 UTC.
Position N 38°36' W 009°49'.

Length 133 m; draft 7.2 m.

Type: Cargo ship. MMSI: 576292000.

Date/timePositionNaut miles runAvg speedWind from/ knotsBaromVisibWave heightAir tempDewpointWater temp
2014-Nov-01 02:32N 38°36' W 009°49'11 9.8
2014-Nov-01 01:28N 38°26' W 009°46'12 9.8
2014-Nov-01 00:17N 38°14' W 009°43'710.0
2014-Oct-31 23:33N 38°07' W 009°40'1110.8
2014-Oct-31 22:33N 37°57' W 009°37'1110.9
2014-Oct-31 21:33N 37°46' W 009°34'1110.8
2014-Oct-31 20:32N 37°35' W 009°31'1110.8
2014-Oct-31 19:34N 37°25' W 009°28'50 9.6
2014-Oct-31 14:24N 36°42' W 008°57'910.4
2014-Oct-31 13:33N 36°39' W 008°47'1010.5
2014-Oct-31 12:33N 36°36' W 008°34'15110.8
2014-Oct-30 22:33N 35°59' W 005°33'1110.8
2014-Oct-30 21:33N 36°02' W 005°20'23110.5
2014-Oct-29 23:33N 36°30' W 000°36'1311.2
2014-Oct-29 22:23N 36°32' W 000°20'2411.0
2014-Oct-29 20:13N 36°36' E 000°09'810.5
2014-Oct-29 19:26N 36°38' E 000°19'  
2014-Oct-27 04:23N 36°42' E 013°34'910.2
2014-Oct-27 03:33N 36°40' E 013°45'  
2014-Oct-24 22:14N 36°46' E 023°30'26 8.4
2014-Oct-24 19:06N 37°08' E 023°48'16 8.4
2014-Oct-24 17:10N 37°23' E 023°58'5 8.2
2014-Oct-24 16:33N 37°27' E 024°01'7 7.2
2014-Oct-24 15:34N 37°33' E 024°05'7 6.5
2014-Oct-24 14:25N 37°39' E 024°10'6 6.6
2014-Oct-24 13:29N 37°44' E 024°15'8 7.9
2014-Oct-24 12:26N 37°49' E 024°23'7 8.1
2014-Oct-24 11:34N 37°54' E 024°30'257 9.5
2014-Oct-23 08:28N 40°52' E 028°31'1010.7
2014-Oct-23 07:33N 40°54' E 028°44'1010.0
2014-Oct-23 06:34N 40°57' E 028°56'  

Dump ship's entire track history